createdAt,value
2018-07-06T00:02:29.527Z,7.20
2018-07-06T00:05:09.099Z,7.10
2018-07-06T00:07:48.896Z,6.10
2018-07-06T00:10:28.572Z,7.10
2018-07-06T00:13:01.984Z,6.30
2018-07-06T00:15:41.661Z,6.20
2018-07-06T00:18:21.296Z,6.10
2018-07-06T00:21:00.795Z,5.92
2018-07-06T00:23:40.433Z,5.90
2018-07-06T00:26:19.923Z,5.78
2018-07-06T00:28:59.580Z,6.00
2018-07-06T00:31:39.111Z,5.80
2018-07-06T00:34:18.740Z,5.90
2018-07-06T00:36:58.268Z,6.00
2018-07-06T00:39:37.911Z,6.10
2018-07-06T00:42:17.445Z,5.50
2018-07-06T00:44:57.000Z,6.00
2018-07-06T00:47:36.423Z,6.10
2018-07-06T00:50:16.095Z,5.87
2018-07-06T00:52:55.536Z,5.87
2018-07-06T00:55:35.186Z,5.30
2018-07-06T00:58:14.755Z,5.40
2018-07-06T01:00:54.361Z,5.50
2018-07-06T01:03:33.900Z,5.80
2018-07-06T01:06:13.384Z,5.80
2018-07-06T01:08:52.927Z,5.40
2018-07-06T01:11:32.451Z,5.55
2018-07-06T01:14:06.023Z,5.80
2018-07-06T01:16:45.747Z,5.30
2018-07-06T01:19:25.313Z,5.65
2018-07-06T01:22:04.805Z,5.30
2018-07-06T01:24:44.386Z,5.37
2018-07-06T01:27:23.900Z,5.30
2018-07-06T01:30:03.549Z,5.20
2018-07-06T01:32:43.055Z,5.58
2018-07-06T01:35:22.520Z,5.35
2018-07-06T01:38:02.046Z,5.35
2018-07-06T01:40:41.395Z,5.60
2018-07-06T01:43:20.948Z,5.55
2018-07-06T01:46:00.691Z,5.30
2018-07-06T01:48:40.312Z,5.20
2018-07-06T01:51:19.912Z,5.35
2018-07-06T01:53:59.616Z,5.30
2018-07-06T01:56:39.145Z,5.67
2018-07-06T01:59:18.647Z,5.55
2018-07-06T02:01:58.351Z,5.95
2018-07-06T02:04:37.879Z,5.97
2018-07-06T02:07:17.548Z,6.30
2018-07-06T02:09:57.009Z,6.22
2018-07-06T02:12:36.575Z,5.83
2018-07-06T02:15:16.047Z,5.70
2018-07-06T02:17:55.549Z,6.10
2018-07-06T02:20:34.935Z,5.53
2018-07-06T02:23:14.515Z,6.12
2018-07-06T02:25:54.076Z,6.20
2018-07-06T02:28:33.616Z,6.50
2018-07-06T02:31:13.029Z,6.60
2018-07-06T02:33:52.753Z,6.80
2018-07-06T02:36:32.341Z,6.50
2018-07-06T02:39:11.833Z,5.57
2018-07-06T02:41:45.363Z,6.65
2018-07-06T02:44:25.191Z,6.25
2018-07-06T02:47:04.834Z,6.28
2018-07-06T02:49:44.240Z,6.78
2018-07-06T02:52:24.101Z,6.72
2018-07-06T02:55:03.775Z,7.25
2018-07-06T02:57:43.289Z,7.08
2018-07-06T03:00:22.983Z,6.70
2018-07-06T03:03:02.455Z,7.53
2018-07-06T03:05:41.962Z,6.75
2018-07-06T03:08:21.817Z,6.90
2018-07-06T03:11:01.565Z,7.10
2018-07-06T03:13:41.200Z,6.80
2018-07-06T03:16:20.947Z,7.30
2018-07-06T03:19:00.527Z,6.75
2018-07-06T03:21:39.985Z,7.10
2018-07-06T03:24:19.473Z,7.13
2018-07-06T03:26:58.825Z,7.03
2018-07-06T03:29:32.477Z,7.22
2018-07-06T03:32:12.049Z,6.80
2018-07-06T03:34:51.664Z,7.28
2018-07-06T03:37:31.429Z,6.00
2018-07-06T03:40:11.034Z,6.92
2018-07-06T03:42:50.600Z,6.20
2018-07-06T03:45:30.120Z,7.70
2018-07-06T03:48:09.671Z,7.20
2018-07-06T03:50:49.091Z,7.20
2018-07-06T03:53:28.625Z,7.12
2018-07-06T03:56:08.020Z,6.90
2018-07-06T03:58:41.495Z,6.80
2018-07-06T04:01:20.881Z,6.80
2018-07-06T04:04:00.473Z,6.17
2018-07-06T04:06:40.034Z,6.72
2018-07-06T04:09:19.921Z,6.85
2018-07-06T04:11:59.341Z,6.95
2018-07-06T04:14:38.876Z,7.70
2018-07-06T04:17:18.489Z,7.30
2018-07-06T04:19:58.137Z,7.70
2018-07-06T04:22:37.700Z,7.83
2018-07-06T04:25:17.199Z,7.20
2018-07-06T04:27:56.638Z,7.50
2018-07-06T04:30:36.292Z,7.10
2018-07-06T04:33:15.896Z,7.05
2018-07-06T04:35:55.350Z,6.80
2018-07-06T04:38:34.964Z,7.20
2018-07-06T04:41:14.424Z,8.50
2018-07-06T04:43:53.899Z,7.10
2018-07-06T04:46:33.520Z,7.17
2018-07-06T04:49:13.123Z,7.60
2018-07-06T04:51:52.660Z,6.80
2018-07-06T04:54:32.188Z,7.35
2018-07-06T04:57:11.854Z,6.90
2018-07-06T04:59:51.565Z,6.60
2018-07-06T05:02:31.146Z,6.20
2018-07-06T05:05:10.930Z,6.90
2018-07-06T05:07:44.375Z,6.72
2018-07-06T05:10:23.994Z,7.30
2018-07-06T05:13:03.683Z,7.20
2018-07-06T05:15:43.187Z,6.12
2018-07-06T05:18:22.849Z,7.03
2018-07-06T05:21:02.429Z,6.80
2018-07-06T05:23:41.919Z,6.55
2018-07-06T05:26:21.525Z,6.78
2018-07-06T05:29:01.296Z,6.22
2018-07-06T05:31:40.820Z,6.35
2018-07-06T05:34:20.283Z,6.42
2018-07-06T05:36:59.936Z,7.20
2018-07-06T05:39:39.263Z,6.80
2018-07-06T05:42:18.818Z,7.08
2018-07-06T05:44:58.504Z,6.60
2018-07-06T05:47:32.098Z,6.65
2018-07-06T05:50:11.740Z,6.50
2018-07-06T05:52:51.433Z,6.45
2018-07-06T05:55:30.946Z,6.78
2018-07-06T05:58:10.646Z,6.80
2018-07-06T06:00:50.200Z,6.33
2018-07-06T06:03:29.790Z,6.03
2018-07-06T06:06:09.284Z,6.25
2018-07-06T06:08:36.673Z,6.97
2018-07-06T06:11:04.753Z,6.83
2018-07-06T06:13:32.818Z,6.58
2018-07-06T06:16:00.945Z,6.55
2018-07-06T06:18:28.980Z,7.37
2018-07-06T06:20:57.029Z,6.83
2018-07-06T06:23:25.043Z,6.95
2018-07-06T06:25:53.105Z,6.97
2018-07-06T06:28:21.224Z,7.00
2018-07-06T06:30:49.277Z,7.10
2018-07-06T06:33:17.190Z,8.07
2018-07-06T06:35:45.527Z,8.18
2018-07-06T06:38:13.340Z,8.10
2018-07-06T06:40:41.408Z,8.10
2018-07-06T06:43:09.452Z,8.23
2018-07-06T06:45:37.509Z,8.73
2018-07-06T06:48:05.645Z,8.98
2018-07-06T06:50:33.727Z,8.93
2018-07-06T06:53:01.814Z,9.23
2018-07-06T06:55:29.824Z,9.35
2018-07-06T06:57:57.904Z,9.13
2018-07-06T07:00:27.662Z,9.50
2018-07-06T07:02:54.042Z,9.57
2018-07-06T07:05:22.097Z,9.35
2018-07-06T07:07:50.269Z,10.85
2018-07-06T07:10:18.270Z,10.05
2018-07-06T07:12:46.349Z,9.23
2018-07-06T07:15:14.404Z,10.10
2018-07-06T07:17:42.468Z,9.38
2018-07-06T07:20:10.525Z,9.50
2018-07-06T07:22:38.808Z,8.70
2018-07-06T07:25:06.878Z,7.97
2018-07-06T07:27:34.960Z,8.00
2018-07-06T07:30:03.098Z,8.80
2018-07-06T07:32:31.117Z,8.58
2018-07-06T07:34:59.200Z,8.60
2018-07-06T07:37:27.285Z,8.30
2018-07-06T07:39:55.135Z,8.55
2018-07-06T07:42:23.185Z,8.15
2018-07-06T07:44:51.276Z,8.33
2018-07-06T07:47:19.393Z,7.97
2018-07-06T07:49:47.445Z,7.20
2018-07-06T07:52:27.048Z,7.65
2018-07-06T07:54:55.870Z,7.27
2018-07-06T07:57:24.128Z,6.70
2018-07-06T07:59:53.958Z,6.55
2018-07-06T08:02:22.024Z,6.80
2018-07-06T08:04:50.504Z,6.65
2018-07-06T08:07:18.362Z,7.80
2018-07-06T08:09:46.468Z,6.75
2018-07-06T08:12:14.588Z,7.20
2018-07-06T08:14:42.669Z,6.83
2018-07-06T08:17:10.707Z,7.40
2018-07-06T08:19:38.735Z,7.40
2018-07-06T08:22:06.792Z,7.33
2018-07-06T08:24:34.633Z,7.12
2018-07-06T08:27:02.673Z,6.90
2018-07-06T08:29:30.704Z,6.87
2018-07-06T08:31:58.757Z,6.60
2018-07-06T08:34:32.237Z,6.42
2018-07-06T08:37:42.501Z,6.75
2018-07-06T08:40:10.580Z,6.25
2018-07-06T08:42:39.856Z,6.00
2018-07-06T08:45:08.356Z,5.00
2018-07-06T08:47:36.529Z,5.15
2018-07-06T08:50:05.696Z,5.05
2018-07-06T08:52:34.482Z,5.10
2018-07-06T08:55:03.136Z,4.60
2018-07-06T08:57:32.199Z,5.15
2018-07-06T09:00:00.808Z,5.10
2018-07-06T09:02:29.227Z,4.83
2018-07-06T09:04:58.480Z,5.03
2018-07-06T09:07:26.844Z,4.65
2018-07-06T09:09:55.718Z,4.75
2018-07-06T09:12:24.327Z,4.20
2018-07-06T09:14:52.937Z,4.25
2018-07-06T09:17:22.777Z,4.60
2018-07-06T09:19:52.225Z,3.83
2018-07-06T09:22:20.926Z,4.50
2018-07-06T09:24:50.761Z,3.93
2018-07-06T09:27:19.258Z,3.87
2018-07-06T09:29:47.864Z,3.50
2018-07-06T09:32:16.250Z,4.45
2018-07-06T09:34:44.715Z,3.95
2018-07-06T09:37:13.158Z,4.08
2018-07-06T09:39:42.889Z,3.75
2018-07-06T09:42:11.369Z,3.70
2018-07-06T09:44:40.912Z,3.92
2018-07-06T09:47:09.261Z,3.85
2018-07-06T09:49:37.792Z,3.62
2018-07-06T09:52:07.013Z,4.00
2018-07-06T09:54:35.593Z,3.90
2018-07-06T09:57:04.104Z,3.50
2018-07-06T09:59:32.518Z,4.10
2018-07-06T10:02:01.102Z,3.72
2018-07-06T10:04:29.719Z,3.87
2018-07-06T10:06:58.233Z,3.60
2018-07-06T10:09:26.316Z,3.00
2018-07-06T10:11:54.329Z,3.37
2018-07-06T10:14:22.380Z,3.60
2018-07-06T10:16:50.424Z,3.00
2018-07-06T10:19:18.487Z,2.80
2018-07-06T10:21:46.525Z,3.80
2018-07-06T10:24:14.548Z,3.33
2018-07-06T10:26:42.592Z,2.90
2018-07-06T10:31:23.392Z,3.40
2018-07-06T10:33:51.472Z,2.90
2018-07-06T10:36:19.488Z,3.22
2018-07-06T10:38:47.515Z,2.80
2018-07-06T10:41:15.441Z,3.00
2018-07-06T10:43:43.471Z,2.98
2018-07-06T10:46:11.553Z,2.72
2018-07-06T10:48:39.594Z,3.50
2018-07-06T10:51:07.451Z,3.30
2018-07-06T10:53:36.819Z,3.17
2018-07-06T10:56:04.889Z,3.08
2018-07-06T10:58:32.960Z,3.40
2018-07-06T11:01:01.037Z,3.58
2018-07-06T11:03:29.108Z,3.10
2018-07-06T11:05:57.184Z,2.70
2018-07-06T11:08:25.220Z,3.47
2018-07-06T11:10:53.284Z,2.72
2018-07-06T11:13:21.324Z,2.70
2018-07-06T11:15:49.381Z,2.80
2018-07-06T11:18:17.401Z,2.92
2018-07-06T11:20:45.492Z,2.90
2018-07-06T11:23:13.515Z,2.95
2018-07-06T11:25:41.552Z,3.10
2018-07-06T11:28:09.915Z,3.00
2018-07-06T11:30:38.597Z,3.37
2018-07-06T11:33:07.198Z,2.75
2018-07-06T11:35:35.075Z,2.80
2018-07-06T11:38:03.208Z,2.60
2018-07-06T11:40:31.170Z,2.90
2018-07-06T11:42:59.216Z,2.30
2018-07-06T11:45:27.252Z,2.50
2018-07-06T11:47:55.312Z,2.30
2018-07-06T11:50:23.473Z,2.25
2018-07-06T11:52:51.232Z,2.30
2018-07-06T11:55:19.273Z,2.42
2018-07-06T11:57:47.288Z,2.45
2018-07-06T12:00:15.316Z,2.47
2018-07-06T12:02:43.373Z,2.73
2018-07-06T12:05:11.426Z,2.10
2018-07-06T12:07:39.253Z,2.70
2018-07-06T12:10:07.300Z,2.40
2018-07-06T12:12:35.333Z,2.20
2018-07-06T12:15:03.582Z,2.35
2018-07-06T12:17:31.723Z,2.45
2018-07-06T12:19:59.763Z,2.65
2018-07-06T12:22:27.830Z,2.00
2018-07-06T12:24:56.181Z,2.15
2018-07-06T12:27:24.043Z,2.30
2018-07-06T12:29:52.097Z,2.45
2018-07-06T12:32:20.162Z,2.42
2018-07-06T12:34:48.232Z,2.35
2018-07-06T12:37:16.280Z,2.70
2018-07-06T12:39:44.354Z,2.50
2018-07-06T12:42:12.393Z,2.20
2018-07-06T12:44:40.439Z,2.50
2018-07-06T12:47:08.351Z,2.10
2018-07-06T12:49:36.351Z,2.30
2018-07-06T12:52:04.408Z,2.30
2018-07-06T12:54:32.496Z,2.20
2018-07-06T12:57:00.572Z,2.47
2018-07-06T12:59:28.656Z,2.90
2018-07-06T13:01:56.497Z,2.50
2018-07-06T13:04:24.554Z,2.67
2018-07-06T13:06:52.596Z,2.20
2018-07-06T13:09:20.637Z,2.40
2018-07-06T13:11:48.664Z,2.12
2018-07-06T13:14:16.723Z,2.22
2018-07-06T13:16:44.787Z,2.35
2018-07-06T13:19:12.809Z,2.10
2018-07-06T13:21:40.821Z,2.10
2018-07-06T13:24:08.852Z,2.37
2018-07-06T13:26:36.885Z,2.17
2018-07-06T13:29:05.815Z,2.37
2018-07-06T13:31:33.648Z,2.25
2018-07-06T13:34:01.672Z,2.50
2018-07-06T13:36:29.713Z,2.10
2018-07-06T13:38:57.767Z,2.60
2018-07-06T13:41:25.777Z,2.40
2018-07-06T13:43:53.837Z,2.47
2018-07-06T13:46:21.769Z,2.55
2018-07-06T13:48:49.768Z,2.40
2018-07-06T13:51:17.832Z,2.42
2018-07-06T13:53:45.857Z,2.42
2018-07-06T13:56:13.901Z,1.80
2018-07-06T13:58:41.941Z,2.40
2018-07-06T14:01:09.771Z,2.42
2018-07-06T14:03:37.856Z,2.60
2018-07-06T14:06:05.898Z,3.60
2018-07-06T14:08:34.208Z,4.58
2018-07-06T14:11:02.300Z,4.65
2018-07-06T14:13:30.332Z,2.90
2018-07-06T14:15:58.377Z,3.60
2018-07-06T14:18:26.408Z,2.90
2018-07-06T14:20:54.461Z,2.90
2018-07-06T14:23:22.482Z,2.67
2018-07-06T14:25:50.500Z,2.60
2018-07-06T14:28:18.541Z,1.80
2018-07-06T14:30:46.624Z,2.65
2018-07-06T14:33:14.673Z,2.17
2018-07-06T14:35:42.775Z,2.10
2018-07-06T14:38:10.536Z,2.00
2018-07-06T14:40:38.556Z,2.70
2018-07-06T14:43:06.597Z,2.30
2018-07-06T14:45:34.632Z,2.10
2018-07-06T14:48:02.665Z,1.95
2018-07-06T14:50:30.692Z,2.20
2018-07-06T14:52:58.756Z,2.25
2018-07-06T14:55:26.841Z,1.70
2018-07-06T14:57:54.896Z,1.82
2018-07-06T15:00:23.058Z,2.20
2018-07-06T15:02:51.120Z,2.02
2018-07-06T15:05:19.184Z,1.50
2018-07-06T15:07:47.211Z,1.80
2018-07-06T15:10:15.303Z,1.75
2018-07-06T15:12:43.373Z,2.42
2018-07-06T15:15:11.223Z,2.33
2018-07-06T15:17:39.087Z,2.25
2018-07-06T15:20:07.328Z,1.70
2018-07-06T15:22:35.368Z,1.87
2018-07-06T15:25:03.445Z,1.70
2018-07-06T15:27:31.469Z,2.10
2018-07-06T15:29:59.308Z,1.62
2018-07-06T15:32:27.402Z,2.70
2018-07-06T15:34:55.432Z,1.98
2018-07-06T15:37:23.491Z,2.10
2018-07-06T15:39:51.689Z,1.90
2018-07-06T15:42:19.697Z,2.40
2018-07-06T15:44:47.716Z,1.80
2018-07-06T15:47:15.725Z,2.60
2018-07-06T15:49:43.768Z,2.27
2018-07-06T15:52:11.775Z,2.27
2018-07-06T15:54:39.825Z,3.37
2018-07-06T15:57:07.894Z,2.20
2018-07-06T15:59:35.951Z,2.40
2018-07-06T16:02:04.027Z,2.40
2018-07-06T16:04:32.075Z,2.70
2018-07-06T16:07:00.089Z,2.30
2018-07-06T16:09:27.930Z,2.60
2018-07-06T16:11:55.979Z,2.35
2018-07-06T16:14:24.020Z,2.10
2018-07-06T16:16:52.103Z,2.35
2018-07-06T16:19:20.137Z,3.00
2018-07-06T16:21:48.172Z,2.20
2018-07-06T16:24:16.211Z,2.55
2018-07-06T16:26:44.328Z,2.60
2018-07-06T16:29:12.401Z,2.80
2018-07-06T16:31:40.539Z,2.60
2018-07-06T16:34:08.512Z,2.47
2018-07-06T16:36:36.557Z,2.90
2018-07-06T16:39:05.029Z,2.70
2018-07-06T16:41:33.080Z,2.83
2018-07-06T16:44:01.212Z,2.40
2018-07-06T16:46:29.209Z,2.50
2018-07-06T16:48:57.246Z,2.72
2018-07-06T16:51:25.350Z,2.55
2018-07-06T16:53:53.392Z,2.70
2018-07-06T16:56:21.413Z,2.40
2018-07-06T16:58:49.516Z,2.50
2018-07-06T17:01:17.581Z,2.90
2018-07-06T17:03:45.621Z,2.58
2018-07-06T17:06:13.460Z,2.80
2018-07-06T17:08:41.535Z,2.50
2018-07-06T17:11:09.623Z,2.50
2018-07-06T17:13:37.653Z,2.35
2018-07-06T17:16:05.729Z,2.60
2018-07-06T17:18:33.755Z,3.00
2018-07-06T17:21:01.841Z,2.87
2018-07-06T17:23:29.824Z,2.65
2018-07-06T17:25:57.887Z,2.45
2018-07-06T17:28:25.911Z,2.00
2018-07-06T17:30:53.958Z,2.40
2018-07-06T17:33:22.044Z,2.72
2018-07-06T17:35:50.080Z,2.50
2018-07-06T17:38:18.109Z,3.05
2018-07-06T17:40:46.153Z,2.60
2018-07-06T17:43:14.188Z,2.47
2018-07-06T17:45:42.274Z,3.00
2018-07-06T17:48:10.300Z,2.45
2018-07-06T17:50:38.387Z,2.70
2018-07-06T17:53:06.417Z,2.72
2018-07-06T17:55:34.241Z,2.70
2018-07-06T17:58:02.280Z,3.00
2018-07-06T18:00:30.324Z,2.40
2018-07-06T18:02:58.357Z,3.65
2018-07-06T18:05:26.404Z,3.00
2018-07-06T18:07:54.431Z,3.30
2018-07-06T18:10:22.569Z,2.80
2018-07-06T18:12:50.629Z,2.95
2018-07-06T18:15:18.967Z,2.80
2018-07-06T18:17:46.988Z,3.30
2018-07-06T18:20:15.001Z,3.67
2018-07-06T18:22:43.134Z,2.90
2018-07-06T18:25:11.165Z,2.83
2018-07-06T18:27:39.229Z,2.90
2018-07-06T18:30:07.273Z,2.92
2018-07-06T18:32:35.140Z,3.30
2018-07-06T18:35:03.209Z,3.33
2018-07-06T18:37:31.058Z,3.52
2018-07-06T18:39:59.054Z,2.70
2018-07-06T18:42:27.107Z,3.23
2018-07-06T18:44:54.947Z,3.10
2018-07-06T18:47:22.985Z,2.98
2018-07-06T18:49:51.017Z,3.10
2018-07-06T18:52:18.879Z,2.80
2018-07-06T18:54:47.003Z,3.50
2018-07-06T18:57:15.788Z,3.17
2018-07-06T18:59:43.827Z,3.40
2018-07-06T19:02:11.641Z,3.20
2018-07-06T19:04:39.656Z,3.52
2018-07-06T19:07:07.726Z,3.60
2018-07-06T19:09:35.778Z,3.50
2018-07-06T19:12:03.808Z,3.15
2018-07-06T19:14:31.900Z,3.37
2018-07-06T19:16:59.908Z,3.15
2018-07-06T19:19:27.948Z,3.70
2018-07-06T19:21:55.961Z,3.22
2018-07-06T19:24:24.044Z,3.60
2018-07-06T19:26:52.048Z,3.67
2018-07-06T19:29:20.092Z,3.40
2018-07-06T19:31:48.112Z,3.25
2018-07-06T19:34:16.153Z,3.40
2018-07-06T19:36:44.204Z,3.10
2018-07-06T19:39:12.257Z,3.20
2018-07-06T19:41:40.275Z,4.00
2018-07-06T19:44:08.968Z,3.30
2018-07-06T19:46:36.988Z,3.13
2018-07-06T19:49:05.137Z,3.42
2018-07-06T19:51:33.177Z,3.40
2018-07-06T19:54:01.217Z,3.37
2018-07-06T19:56:29.268Z,3.12
2018-07-06T19:58:57.307Z,3.55
2018-07-06T20:01:25.376Z,3.70
2018-07-06T20:03:53.252Z,3.95
2018-07-06T20:06:21.301Z,3.40
2018-07-06T20:08:49.349Z,4.15
2018-07-06T20:11:17.520Z,3.90
2018-07-06T20:13:45.560Z,3.50
2018-07-06T20:16:13.583Z,4.20
2018-07-06T20:18:41.676Z,3.33
2018-07-06T20:21:09.505Z,4.30
2018-07-06T20:23:37.554Z,4.25
2018-07-06T20:26:05.676Z,3.80
2018-07-06T20:28:33.512Z,3.98
2018-07-06T20:31:01.577Z,3.60
2018-07-06T20:33:29.621Z,3.92
2018-07-06T20:35:57.663Z,3.70
2018-07-06T20:38:25.723Z,3.52
2018-07-06T20:40:53.784Z,3.80
2018-07-06T20:43:21.875Z,3.90
2018-07-06T20:45:49.840Z,3.50
2018-07-06T20:48:17.904Z,3.72
2018-07-06T21:02:11.201Z,3.67
2018-07-06T21:04:39.216Z,3.70
2018-07-06T21:07:07.272Z,5.05
2018-07-06T21:09:35.276Z,4.70
2018-07-06T21:12:03.384Z,4.30
2018-07-06T21:14:31.427Z,3.70
2018-07-06T21:16:59.457Z,3.72
2018-07-06T21:19:27.508Z,4.40
2018-07-06T21:21:55.524Z,4.50
2018-07-06T21:24:23.768Z,4.17
2018-07-06T21:26:51.833Z,3.75
2018-07-06T21:29:19.661Z,4.08
2018-07-06T21:31:47.708Z,3.90
2018-07-06T21:34:15.735Z,3.72
2018-07-06T21:36:43.572Z,4.53
2018-07-06T21:39:11.610Z,4.40
2018-07-06T21:41:39.619Z,4.17
2018-07-06T21:44:07.664Z,4.08
2018-07-06T21:46:35.704Z,3.52
2018-07-06T21:49:03.736Z,4.20
2018-07-06T21:51:31.772Z,4.40
2018-07-06T21:53:59.820Z,4.20
2018-07-06T21:56:27.853Z,4.60
2018-07-06T21:58:56.229Z,4.15
2018-07-06T22:01:24.349Z,4.10
2018-07-06T22:03:52.404Z,4.30
2018-07-06T22:06:20.458Z,4.42
2018-07-06T22:08:48.469Z,4.37
2018-07-06T22:11:16.506Z,4.20
2018-07-06T22:13:44.598Z,4.40
2018-07-06T22:16:12.624Z,4.55
2018-07-06T22:18:40.635Z,3.90
2018-07-06T22:21:08.663Z,4.53
2018-07-06T22:23:36.684Z,4.35
2018-07-06T22:26:04.720Z,4.23
2018-07-06T22:28:32.763Z,4.53
2018-07-06T22:31:00.840Z,4.85
2018-07-06T22:33:28.855Z,3.90
2018-07-06T22:35:56.896Z,3.60
2018-07-06T22:38:24.944Z,4.00
2018-07-06T22:40:52.992Z,4.17
2018-07-06T22:43:21.000Z,4.30
2018-07-06T22:45:48.835Z,4.58
2018-07-06T22:48:16.870Z,4.00
2018-07-06T22:50:44.921Z,4.03
2018-07-06T22:53:12.766Z,4.37
2018-07-06T22:55:40.817Z,4.50
2018-07-06T22:58:08.832Z,3.95
2018-07-06T23:00:36.877Z,4.30
2018-07-06T23:03:05.758Z,4.80
2018-07-06T23:05:33.858Z,4.40
2018-07-06T23:08:01.833Z,4.70
2018-07-06T23:10:29.861Z,3.60
2018-07-06T23:12:57.916Z,3.85
2018-07-06T23:15:25.934Z,4.30
2018-07-06T23:17:53.952Z,4.20
2018-07-06T23:20:21.984Z,4.50
2018-07-06T23:22:59.625Z,4.33
2018-07-06T23:25:27.673Z,4.67
2018-07-06T23:27:55.984Z,4.28
2018-07-06T23:30:24.009Z,4.25
2018-07-06T23:32:52.068Z,4.07
2018-07-06T23:35:20.192Z,4.28
2018-07-06T23:37:48.236Z,4.37
2018-07-06T23:40:16.300Z,4.33
2018-07-06T23:42:44.320Z,3.80
2018-07-06T23:45:12.144Z,4.37
2018-07-06T23:47:40.148Z,4.05
2018-07-06T23:50:07.992Z,4.33
2018-07-06T23:52:36.011Z,4.50
2018-07-06T23:55:04.180Z,4.60
2018-07-06T23:57:32.174Z,4.28
